createdAt,value
2023-05-14T00:01:15.761Z,16.77
2023-05-14T00:04:03.408Z,17.33
2023-05-14T00:06:50.875Z,18.83
2023-05-14T00:09:40.489Z,16.63
2023-05-14T00:12:27.759Z,14.77
2023-05-14T00:15:14.980Z,16.77
2023-05-14T00:18:02.267Z,16.77
2023-05-14T00:20:55.079Z,16.60
2023-05-14T00:23:42.151Z,16.47
2023-05-14T00:26:31.066Z,15.87
2023-05-14T00:29:18.228Z,19.60
2023-05-14T00:32:06.757Z,17.00
2023-05-14T00:34:53.887Z,17.10
2023-05-14T00:37:42.021Z,19.50
2023-05-14T00:40:29.243Z,19.53
2023-05-14T00:43:18.800Z,16.90
2023-05-14T00:46:06.325Z,16.85
2023-05-14T00:48:55.017Z,17.23
2023-05-14T00:51:42.879Z,19.43
2023-05-14T00:54:31.361Z,17.23
2023-05-14T00:57:19.627Z,17.10
2023-05-14T01:00:10.431Z,16.50
2023-05-14T01:03:01.783Z,16.60
2023-05-14T01:06:01.268Z,17.60
2023-05-14T01:08:59.553Z,17.43
2023-05-14T01:11:56.013Z,17.57
2023-05-14T01:14:50.397Z,18.57
2023-05-14T01:17:42.961Z,16.87
2023-05-14T01:20:31.036Z,16.50
2023-05-14T01:23:19.584Z,15.93
2023-05-14T01:26:07.626Z,19.53
2023-05-14T01:28:57.246Z,15.93
2023-05-14T01:31:47.618Z,17.53
2023-05-14T01:34:36.732Z,19.03
2023-05-14T01:37:26.526Z,17.33
2023-05-14T01:40:15.633Z,17.43
2023-05-14T01:43:04.527Z,17.90
2023-05-14T01:45:51.724Z,19.47
2023-05-14T01:48:39.940Z,19.30
2023-05-14T01:51:27.249Z,18.57
2023-05-14T01:54:15.434Z,19.67
2023-05-14T01:57:04.117Z,21.63
2023-05-14T01:59:52.307Z,17.83
2023-05-14T02:02:39.502Z,15.17
2023-05-14T02:05:29.235Z,17.00
2023-05-14T02:08:16.583Z,15.17
2023-05-14T02:11:04.728Z,19.00
2023-05-14T02:13:53.277Z,17.20
2023-05-14T02:16:41.370Z,17.30
2023-05-14T02:19:28.599Z,17.90
2023-05-14T02:22:16.692Z,17.23
2023-05-14T02:25:04.526Z,18.40
2023-05-14T02:27:52.631Z,16.43
2023-05-14T02:30:41.758Z,18.73
2023-05-14T02:33:29.058Z,16.80
2023-05-14T02:36:17.250Z,17.63
2023-05-14T02:39:05.383Z,17.27
2023-05-14T02:41:53.054Z,21.37
2023-05-14T02:44:41.067Z,20.33
2023-05-14T02:47:30.123Z,19.47
2023-05-14T02:50:17.914Z,18.93
2023-05-14T02:53:05.658Z,18.83
2023-05-14T02:55:53.325Z,20.37
2023-05-14T02:58:40.539Z,23.43
2023-05-14T03:01:29.081Z,22.53
2023-05-14T03:04:18.507Z,21.70
2023-05-14T03:07:06.534Z,18.80
2023-05-14T03:09:53.728Z,24.17
2023-05-14T03:12:42.177Z,21.50
2023-05-14T03:15:29.362Z,19.20
2023-05-14T03:18:17.510Z,19.30
2023-05-14T03:21:09.443Z,19.93
2023-05-14T03:23:57.640Z,20.07
2023-05-14T03:26:44.793Z,21.77
2023-05-14T03:29:32.950Z,20.50
2023-05-14T03:32:20.647Z,22.33
2023-05-14T03:35:08.742Z,23.90
2023-05-14T03:37:59.746Z,20.90
2023-05-14T03:40:47.269Z,21.53
2023-05-14T03:43:35.646Z,21.80
2023-05-14T03:46:22.844Z,22.93
2023-05-14T03:49:11.060Z,22.93
2023-05-14T03:51:59.868Z,20.90
2023-05-14T03:54:48.509Z,18.33
2023-05-14T03:57:37.195Z,20.80
2023-05-14T04:00:25.448Z,20.13
2023-05-14T04:03:13.963Z,21.37
2023-05-14T04:06:01.849Z,18.47
2023-05-14T04:08:49.953Z,18.83
2023-05-14T04:11:39.215Z,19.73
2023-05-14T04:14:26.391Z,18.73
2023-05-14T04:17:14.671Z,21.30
2023-05-14T04:20:01.937Z,20.20
2023-05-14T04:22:50.096Z,19.83
2023-05-14T04:25:37.253Z,20.70
2023-05-14T04:28:26.688Z,20.37
2023-05-14T04:31:13.925Z,19.57
2023-05-14T04:34:01.558Z,22.47
2023-05-14T04:36:48.746Z,23.47
2023-05-14T04:39:38.860Z,20.50
2023-05-14T04:42:26.076Z,20.83
2023-05-14T04:45:15.837Z,19.40
2023-05-14T04:48:03.710Z,19.57
2023-05-14T04:50:52.584Z,19.33
2023-05-14T04:53:39.826Z,21.90
2023-05-14T04:56:27.952Z,20.83
2023-05-14T04:59:16.378Z,21.17
2023-05-14T05:02:05.903Z,19.60
2023-05-14T05:04:53.200Z,17.97
2023-05-14T05:07:41.390Z,17.57
2023-05-14T05:10:28.644Z,19.63
2023-05-14T05:13:17.575Z,21.57
2023-05-14T05:16:05.398Z,20.93
2023-05-14T05:18:54.988Z,21.60
2023-05-14T05:21:42.154Z,21.17
2023-05-14T05:24:30.261Z,20.27
2023-05-14T05:27:17.471Z,18.23
2023-05-14T05:30:06.891Z,20.17
2023-05-14T05:32:54.186Z,20.97
2023-05-14T05:35:45.002Z,22.30
2023-05-14T05:38:32.190Z,25.47
2023-05-14T05:41:20.256Z,26.10
2023-05-14T05:44:07.668Z,21.47
2023-05-14T05:46:57.691Z,24.40
2023-05-14T05:49:45.033Z,18.27
2023-05-14T05:52:34.505Z,18.57
2023-05-14T05:55:22.314Z,20.93
2023-05-14T05:58:10.027Z,23.60
2023-05-14T06:00:57.738Z,21.03
2023-05-14T06:03:47.735Z,19.23
2023-05-14T06:06:35.859Z,20.57
2023-05-14T06:09:25.316Z,20.50
2023-05-14T06:12:12.479Z,25.63
2023-05-14T06:15:00.599Z,25.17
2023-05-14T06:17:47.793Z,21.10
2023-05-14T06:20:35.917Z,20.50
2023-05-14T06:23:23.127Z,17.03
2023-05-14T06:26:12.550Z,19.87
2023-05-14T06:28:59.697Z,24.37
2023-05-14T06:31:47.830Z,19.17
2023-05-14T06:34:34.991Z,20.20
2023-05-14T06:37:23.063Z,18.70
2023-05-14T06:40:11.534Z,24.90
2023-05-14T06:43:00.556Z,24.53
2023-05-14T06:45:49.592Z,18.20
2023-05-14T06:48:36.743Z,19.10
2023-05-14T06:51:24.997Z,19.93
2023-05-14T06:54:12.409Z,21.60
2023-05-14T06:57:00.454Z,22.40
2023-05-14T06:59:49.010Z,19.93
2023-05-14T07:02:38.600Z,18.77
2023-05-14T07:05:26.180Z,18.60
2023-05-14T07:08:14.395Z,18.88
2023-05-14T07:11:01.653Z,19.87
2023-05-14T07:13:49.808Z,19.75
2023-05-14T07:16:39.053Z,17.20
2023-05-14T07:19:28.601Z,21.25
2023-05-14T07:22:16.774Z,19.80
2023-05-14T07:25:04.250Z,19.00
2023-05-14T07:27:52.329Z,17.60
2023-05-14T07:30:40.092Z,16.17
2023-05-14T07:33:29.131Z,15.27
2023-05-14T07:36:16.821Z,15.20
2023-05-14T07:39:04.522Z,14.57
2023-05-14T07:41:52.381Z,15.63
2023-05-14T07:44:39.599Z,13.65
2023-05-14T07:47:27.797Z,16.13
2023-05-14T07:50:17.035Z,14.45
2023-05-14T07:53:04.720Z,13.88
2023-05-14T07:55:52.057Z,14.70
2023-05-14T07:58:40.100Z,14.63
2023-05-14T08:01:27.395Z,12.48
2023-05-14T08:04:16.677Z,12.88
2023-05-14T08:07:05.790Z,12.68
2023-05-14T08:09:53.014Z,11.82
2023-05-14T08:12:41.252Z,14.45
2023-05-14T08:15:28.421Z,13.57
2023-05-14T08:18:16.590Z,15.05
2023-05-14T08:21:04.108Z,12.73
2023-05-14T08:23:53.479Z,15.55
2023-05-14T08:26:40.665Z,13.38
2023-05-14T08:29:28.851Z,17.77
2023-05-14T08:32:22.945Z,14.18
2023-05-14T08:35:12.410Z,13.43
2023-05-14T08:38:00.066Z,14.95
2023-05-14T08:40:52.421Z,15.40
2023-05-14T08:43:46.483Z,16.98
2023-05-14T08:46:36.190Z,17.13
2023-05-14T08:49:32.043Z,14.43
2023-05-14T08:52:21.586Z,17.42
2023-05-14T08:55:11.985Z,12.07
2023-05-14T08:58:01.420Z,14.00
2023-05-14T09:00:49.580Z,15.45
2023-05-14T09:03:37.466Z,15.43
2023-05-14T09:06:26.537Z,16.08
2023-05-14T09:09:13.997Z,13.00
2023-05-14T09:12:02.421Z,11.07
2023-05-14T09:14:51.541Z,17.50
2023-05-14T09:17:39.731Z,11.98
2023-05-14T09:20:28.447Z,11.43
2023-05-14T09:23:17.350Z,13.40
2023-05-14T09:26:05.855Z,12.57
2023-05-14T09:28:58.605Z,13.40
2023-05-14T09:31:49.955Z,14.90
2023-05-14T09:34:38.526Z,11.27
2023-05-14T09:37:26.287Z,12.02
2023-05-14T09:40:15.753Z,11.88
2023-05-14T09:43:03.586Z,12.15
2023-05-14T09:45:51.677Z,11.77
2023-05-14T09:48:40.317Z,12.88
2023-05-14T09:51:31.984Z,10.63
2023-05-14T09:54:19.706Z,13.75
2023-05-14T09:57:07.341Z,12.13
2023-05-14T09:59:54.601Z,13.65
2023-05-14T10:02:45.650Z,12.85
2023-05-14T10:05:37.344Z,11.10
2023-05-14T10:08:27.551Z,11.40
2023-05-14T10:11:21.672Z,11.18
2023-05-14T10:14:17.950Z,11.00
2023-05-14T10:17:08.164Z,12.27
2023-05-14T10:19:58.686Z,12.38
2023-05-14T10:22:47.769Z,12.40
2023-05-14T10:25:35.436Z,12.07
2023-05-14T10:28:23.683Z,9.80
2023-05-14T10:31:10.999Z,11.30
2023-05-14T10:33:59.957Z,11.65
2023-05-14T10:36:47.793Z,9.38
2023-05-14T10:39:44.822Z,11.93
2023-05-14T10:42:40.497Z,9.27
2023-05-14T10:45:28.646Z,10.15
2023-05-14T10:48:16.054Z,9.32
2023-05-14T10:51:03.901Z,10.80
2023-05-14T10:53:52.493Z,12.55
2023-05-14T10:56:46.132Z,11.15
2023-05-14T10:59:34.174Z,12.20
2023-05-14T11:02:24.510Z,9.70
2023-05-14T11:05:14.480Z,11.55
2023-05-14T11:08:05.939Z,10.13
2023-05-14T11:10:55.083Z,13.15
2023-05-14T11:13:44.570Z,11.65
2023-05-14T11:16:31.819Z,11.35
2023-05-14T11:19:22.565Z,11.00
2023-05-14T11:22:09.871Z,10.65
2023-05-14T11:24:58.080Z,9.23
2023-05-14T11:27:46.989Z,8.82
2023-05-14T11:30:36.177Z,9.70
2023-05-14T11:33:23.378Z,7.85
2023-05-14T11:36:11.833Z,9.38
2023-05-14T11:38:58.955Z,8.57
2023-05-14T11:41:47.229Z,9.10
2023-05-14T11:44:34.433Z,8.57
2023-05-14T11:47:23.536Z,8.32
2023-05-14T11:50:11.224Z,7.80
2023-05-14T11:52:59.340Z,7.88
2023-05-14T11:55:47.373Z,7.88
2023-05-14T11:58:35.094Z,6.90
2023-05-14T12:01:22.350Z,7.38
2023-05-14T12:04:11.086Z,9.52
2023-05-14T12:07:00.447Z,11.60
2023-05-14T12:09:49.764Z,7.05
2023-05-14T12:12:37.381Z,7.90
2023-05-14T12:15:27.080Z,6.53
2023-05-14T12:18:24.234Z,5.47
2023-05-14T12:21:14.219Z,8.90
2023-05-14T12:24:02.017Z,8.75
2023-05-14T12:26:51.306Z,7.43
2023-05-14T12:29:39.526Z,6.20
2023-05-14T12:32:26.856Z,6.35
2023-05-14T12:35:14.490Z,6.53
2023-05-14T12:38:03.396Z,6.38
2023-05-14T12:40:50.551Z,6.72
2023-05-14T12:43:37.672Z,5.93
2023-05-14T12:46:27.309Z,5.50
2023-05-14T12:49:14.477Z,5.38
2023-05-14T12:52:17.284Z,4.78
2023-05-14T12:55:11.347Z,6.13
2023-05-14T12:57:59.061Z,10.32
2023-05-14T13:00:46.305Z,7.32
2023-05-14T13:03:34.556Z,5.63
2023-05-14T13:06:22.498Z,5.38
2023-05-14T13:09:09.806Z,5.95
2023-05-14T13:11:58.859Z,6.00
2023-05-14T13:14:46.553Z,5.13
2023-05-14T13:17:33.770Z,7.18
2023-05-14T13:20:21.068Z,5.55
2023-05-14T13:23:09.129Z,4.35
2023-05-14T13:25:56.509Z,4.97
2023-05-14T13:28:45.129Z,5.28
2023-05-14T13:31:32.538Z,4.90
2023-05-14T13:34:20.599Z,4.15
2023-05-14T13:37:08.219Z,4.65
2023-05-14T13:39:55.950Z,5.13
2023-05-14T13:42:43.613Z,5.32
2023-05-14T13:45:32.108Z,5.03
2023-05-14T13:48:20.148Z,4.40
2023-05-14T13:51:07.399Z,4.25
2023-05-14T13:53:55.827Z,3.97
2023-05-14T13:56:43.456Z,4.43
2023-05-14T13:59:31.173Z,2.95
2023-05-14T14:02:19.796Z,3.85
2023-05-14T14:05:08.372Z,3.95
2023-05-14T14:08:00.853Z,3.38
2023-05-14T14:10:53.469Z,4.00
2023-05-14T14:13:42.618Z,3.72
2023-05-14T14:16:31.112Z,3.70
2023-05-14T14:19:19.753Z,4.15
2023-05-14T14:22:07.521Z,5.50
2023-05-14T14:24:54.958Z,3.65
2023-05-14T14:27:42.212Z,5.35
2023-05-14T14:30:29.417Z,3.60
2023-05-14T14:33:16.718Z,4.22
2023-05-14T14:36:06.119Z,5.05
2023-05-14T14:38:53.370Z,3.25
2023-05-14T14:41:41.258Z,3.30
2023-05-14T14:44:28.425Z,2.53
2023-05-14T14:47:16.154Z,3.00
2023-05-14T14:50:04.193Z,2.40
2023-05-14T14:52:52.731Z,2.38
2023-05-14T14:55:39.898Z,2.20
2023-05-14T14:58:27.538Z,2.50
2023-05-14T15:01:14.704Z,3.33
2023-05-14T15:04:02.384Z,2.55
2023-05-14T15:06:49.503Z,2.38
2023-05-14T15:09:37.979Z,3.13
2023-05-14T15:12:26.004Z,2.58
2023-05-14T15:15:13.163Z,2.13
2023-05-14T15:18:01.413Z,2.83
2023-05-14T15:20:49.308Z,3.83
2023-05-14T15:23:36.528Z,4.03
2023-05-14T15:26:26.216Z,2.30
2023-05-14T15:29:13.903Z,3.00
2023-05-14T15:32:01.724Z,3.08
2023-05-14T15:34:48.834Z,1.98
2023-05-14T15:37:38.080Z,2.42
2023-05-14T15:40:27.573Z,3.45
2023-05-14T15:43:16.332Z,2.45
2023-05-14T15:46:03.602Z,3.45
2023-05-14T15:48:51.167Z,5.03
2023-05-14T15:51:38.842Z,3.03
2023-05-14T15:54:27.064Z,3.00
2023-05-14T15:57:14.410Z,3.33
2023-05-14T16:00:10.708Z,3.47
2023-05-14T16:02:58.386Z,2.67
2023-05-14T16:05:45.686Z,2.38
2023-05-14T16:08:33.818Z,2.65
2023-05-14T16:11:21.453Z,2.10
2023-05-14T16:14:09.015Z,2.10
2023-05-14T16:16:57.689Z,3.42
2023-05-14T16:19:44.808Z,3.70
2023-05-14T16:22:32.771Z,3.00
2023-05-14T16:25:19.935Z,3.85
2023-05-14T16:28:07.984Z,3.60
2023-05-14T16:30:55.126Z,3.20
2023-05-14T16:33:43.921Z,3.95
2023-05-14T16:36:31.897Z,6.43
2023-05-14T16:39:19.863Z,5.68
2023-05-14T16:42:07.985Z,6.03
2023-05-14T16:44:55.207Z,4.85
2023-05-14T16:47:43.294Z,5.65
2023-05-14T16:50:31.853Z,5.18
2023-05-14T16:53:19.928Z,5.03
2023-05-14T16:56:07.907Z,3.53
2023-05-14T16:58:55.134Z,3.65
2023-05-14T17:01:43.499Z,3.28
2023-05-14T17:04:30.745Z,3.03
2023-05-14T17:07:20.142Z,2.90
2023-05-14T17:10:08.171Z,2.90
2023-05-14T17:12:55.989Z,2.78
2023-05-14T17:15:43.297Z,2.40
2023-05-14T17:18:30.998Z,2.33
2023-05-14T17:21:18.116Z,4.38
2023-05-14T17:24:07.855Z,2.65
2023-05-14T17:26:55.004Z,2.55
2023-05-14T17:29:43.270Z,2.47
2023-05-14T17:32:31.890Z,3.30
2023-05-14T17:35:19.011Z,2.43
2023-05-14T17:38:07.281Z,2.80
2023-05-14T17:40:55.812Z,3.53
2023-05-14T17:43:43.503Z,2.57
2023-05-14T17:46:30.796Z,2.67
2023-05-14T17:49:18.862Z,4.28
2023-05-14T17:52:07.210Z,2.17
2023-05-14T17:54:54.859Z,3.67
2023-05-14T17:57:43.840Z,4.93
2023-05-14T18:00:31.155Z,6.45
2023-05-14T18:03:20.621Z,5.15
2023-05-14T18:06:08.399Z,2.33
2023-05-14T18:08:56.441Z,1.88
2023-05-14T18:11:44.166Z,1.87
2023-05-14T18:14:33.114Z,2.27
2023-05-14T18:17:20.536Z,2.97
2023-05-14T18:20:09.710Z,2.53
2023-05-14T18:22:56.874Z,2.17
2023-05-14T18:25:44.121Z,2.95
2023-05-14T18:28:32.240Z,2.75
2023-05-14T18:31:21.344Z,2.53
2023-05-14T18:34:08.449Z,2.35
2023-05-14T18:36:56.156Z,2.40
2023-05-14T18:39:43.358Z,2.53
2023-05-14T18:42:31.083Z,3.38
2023-05-14T18:45:18.278Z,3.33
2023-05-14T18:48:08.066Z,2.22
2023-05-14T18:50:55.364Z,3.75
2023-05-14T18:53:43.334Z,2.63
2023-05-14T18:56:30.739Z,3.00
2023-05-14T18:59:18.353Z,2.75
2023-05-14T19:02:06.057Z,3.05
2023-05-14T19:04:55.481Z,2.30
2023-05-14T19:07:43.785Z,2.20
2023-05-14T19:10:31.032Z,2.58
2023-05-14T19:13:18.842Z,3.47
2023-05-14T19:16:06.453Z,3.23
2023-05-14T19:18:54.602Z,3.17
2023-05-14T19:21:43.530Z,3.13
2023-05-14T19:24:31.233Z,2.87
2023-05-14T19:27:19.341Z,3.83
2023-05-14T19:30:07.635Z,3.87
2023-05-14T19:32:54.902Z,4.50
2023-05-14T19:35:42.697Z,3.50
2023-05-14T19:38:31.246Z,3.27
2023-05-14T19:41:18.890Z,3.73
2023-05-14T19:44:06.071Z,3.23
2023-05-14T19:46:54.356Z,3.60
2023-05-14T19:49:41.554Z,3.73
2023-05-14T19:52:28.759Z,3.80
2023-05-14T19:55:18.159Z,3.63
2023-05-14T19:58:05.577Z,3.87
2023-05-14T20:00:56.702Z,4.70
2023-05-14T20:03:43.929Z,5.07
2023-05-14T20:06:32.535Z,9.10
2023-05-14T20:09:20.065Z,7.77
2023-05-14T20:12:10.242Z,6.83
2023-05-14T20:14:57.429Z,7.43
2023-05-14T20:17:45.535Z,9.00
2023-05-14T20:20:33.357Z,13.07
2023-05-14T20:23:21.529Z,12.17
2023-05-14T20:26:09.249Z,11.97
2023-05-14T20:28:57.704Z,13.23
2023-05-14T20:31:45.772Z,11.30
2023-05-14T20:34:32.954Z,8.47
2023-05-14T20:37:21.003Z,7.90
2023-05-14T20:40:12.582Z,6.10
2023-05-14T20:43:00.372Z,8.03
2023-05-14T20:45:48.887Z,5.47
2023-05-14T20:48:36.896Z,6.03
2023-05-14T20:51:24.613Z,4.93
2023-05-14T20:54:11.915Z,5.43
2023-05-14T20:56:59.949Z,6.93
2023-05-14T20:59:48.063Z,5.50
2023-05-14T21:02:37.145Z,7.43
2023-05-14T21:05:25.567Z,6.00
2023-05-14T21:08:12.692Z,5.67
2023-05-14T21:11:01.003Z,6.80
2023-05-14T21:13:49.063Z,6.10
2023-05-14T21:16:37.185Z,5.93
2023-05-14T21:19:25.646Z,5.87
2023-05-14T21:22:14.321Z,6.57
2023-05-14T21:25:01.714Z,6.67
2023-05-14T21:27:49.917Z,5.33
2023-05-14T21:30:37.113Z,5.83
2023-05-14T21:33:25.216Z,6.53
2023-05-14T21:36:13.820Z,6.43
2023-05-14T21:39:01.907Z,7.53
2023-05-14T21:41:49.076Z,5.20
2023-05-14T21:44:37.176Z,7.53
2023-05-14T21:47:24.530Z,5.97
2023-05-14T21:50:14.204Z,6.17
2023-05-14T21:53:02.714Z,6.30
2023-05-14T21:55:50.788Z,5.67
2023-05-14T21:58:38.235Z,6.87
2023-05-14T22:01:25.515Z,6.60
2023-05-14T22:04:12.802Z,5.23
2023-05-14T22:07:00.931Z,4.23
2023-05-14T22:09:50.299Z,5.73
2023-05-14T22:12:37.588Z,7.50
2023-05-14T22:15:25.876Z,6.23
2023-05-14T22:18:15.276Z,8.27
2023-05-14T22:21:03.554Z,6.23
2023-05-14T22:23:50.842Z,6.27
2023-05-14T22:26:40.273Z,5.73
2023-05-14T22:29:27.952Z,6.43
2023-05-14T22:32:15.082Z,5.10
2023-05-14T22:35:02.753Z,7.87
2023-05-14T22:37:49.865Z,6.60
2023-05-14T22:40:37.434Z,6.60
2023-05-14T22:43:25.907Z,6.47
2023-05-14T22:46:13.503Z,6.87
2023-05-14T22:49:00.644Z,5.90
2023-05-14T22:51:48.671Z,6.13
2023-05-14T22:54:36.830Z,7.30
2023-05-14T22:57:24.510Z,5.33
2023-05-14T23:00:14.523Z,5.33
2023-05-14T23:03:03.367Z,8.93
2023-05-14T23:05:52.487Z,6.20
2023-05-14T23:08:39.710Z,6.40
2023-05-14T23:11:27.818Z,5.73
2023-05-14T23:14:15.591Z,5.80
2023-05-14T23:17:04.345Z,9.10
2023-05-14T23:19:52.722Z,7.17
2023-05-14T23:22:40.074Z,8.00
2023-05-14T23:25:28.152Z,5.33
2023-05-14T23:28:15.509Z,6.20
2023-05-14T23:31:03.530Z,5.67
2023-05-14T23:33:52.047Z,7.60
2023-05-14T23:36:40.911Z,6.10
2023-05-14T23:39:28.135Z,6.00
2023-05-14T23:42:16.270Z,5.90
2023-05-14T23:45:03.929Z,6.33
2023-05-14T23:47:51.729Z,5.80
2023-05-14T23:50:40.287Z,5.67
2023-05-14T23:53:28.394Z,5.47
2023-05-14T23:56:16.146Z,6.30
2023-05-14T23:59:03.682Z,5.93
